Airport Name : Sumburgh

Other Name : Sumburgh

ICAO : EGPB

IATA : LSI

FAA :

Latitude : 59.878889

Longitude : -1.295556

Country : United Kingdom

Local Date and Time : 30 May 2020 06:38

 

TAF (Terminal Aerodrome Forecast)

TAF EGPB 300154Z 3003/3012 14014KT 9999 FEW000 TEMPO 3003/3009 0300 FG BKN000

 

METAR (METeorological Aerodrome Report)

EGPB 300520Z 14012KT 9999 FEW002 10/10 Q1028

EGPB 300450Z AUTO 14011KT 9999 OVC001/// 10/09 Q1028

EGPB 300420Z AUTO 14011KT 7000 OVC001/// 09/09 Q1028

EGPB 300350Z AUTO 15013KT 2500 BR OVC001/// 09/09 Q1028

EGPB 300320Z AUTO 14012KT 1000 BR OVC001/// 09/09 Q1028

EGPB 300250Z AUTO 14013KT 0800 FG OVC001/// 09/09 Q1028

EGPB 300220Z AUTO 14015KT 1000 BR OVC001/// 09/09 Q1028

EGPB 300150Z AUTO 14014KT 0750 FG OVC001/// 09/09 Q1028

To Charter a Jet Click here.